createdAt,value
2019-03-31T00:02:37.010Z,71.97
2019-03-31T00:05:11.436Z,71.97
2019-03-31T00:07:46.196Z,80.33
2019-03-31T00:10:20.254Z,75.23
2019-03-31T00:12:54.996Z,83.47
2019-03-31T00:15:30.019Z,77.57
2019-03-31T00:18:04.333Z,78.10
2019-03-31T00:20:38.817Z,80.40
2019-03-31T00:23:13.704Z,84.60
2019-03-31T00:26:01.590Z,83.53
2019-03-31T00:28:53.745Z,84.97
2019-03-31T00:31:27.868Z,87.97
2019-03-31T00:34:02.560Z,81.63
2019-03-31T00:36:37.079Z,80.30
2019-03-31T00:39:12.969Z,91.37
2019-03-31T00:41:47.023Z,91.63
2019-03-31T00:44:21.477Z,90.43
2019-03-31T00:46:56.303Z,91.10
2019-03-31T00:49:41.987Z,93.70
2019-03-31T00:52:15.849Z,101.33
2019-03-31T00:54:50.359Z,104.00
2019-03-31T00:57:34.285Z,99.90
2019-03-31T01:00:10.379Z,104.13
2019-03-31T01:03:05.905Z,101.80
2019-03-31T01:05:41.568Z,91.53
2019-03-31T01:08:15.746Z,88.73
2019-03-31T01:11:01.206Z,91.23
2019-03-31T01:13:35.920Z,103.70
2019-03-31T01:16:12.706Z,109.43
2019-03-31T01:18:46.889Z,103.70
2019-03-31T01:21:21.777Z,96.47
2019-03-31T01:23:56.188Z,90.73
2019-03-31T01:26:39.585Z,77.47
2019-03-31T01:29:15.093Z,76.30
2019-03-31T01:31:50.942Z,76.80
2019-03-31T01:34:34.530Z,70.50
2019-03-31T01:37:25.876Z,60.43
2019-03-31T01:40:02.633Z,62.17
2019-03-31T01:42:38.516Z,54.63
2019-03-31T01:45:13.020Z,56.60
2019-03-31T01:47:57.741Z,52.73
2019-03-31T01:50:31.838Z,47.37
2019-03-31T01:53:05.639Z,44.67
2019-03-31T01:55:40.871Z,54.93
2019-03-31T01:58:15.245Z,47.70
2019-03-31T02:00:53.661Z,48.30
2019-03-31T02:03:28.747Z,44.23
2019-03-31T02:06:02.733Z,43.13
2019-03-31T02:08:37.401Z,43.67
2019-03-31T02:11:21.328Z,43.13
2019-03-31T02:13:55.693Z,37.40
2019-03-31T02:16:30.895Z,36.37
2019-03-31T02:19:06.611Z,33.93
2019-03-31T02:21:42.214Z,35.90
2019-03-31T02:24:25.798Z,37.73
2019-03-31T02:26:59.929Z,32.23
2019-03-31T02:29:34.668Z,29.90
2019-03-31T02:32:23.204Z,33.00
2019-03-31T02:34:45.806Z,30.70
2019-03-31T02:37:21.168Z,31.13
2019-03-31T02:39:55.015Z,28.97
2019-03-31T02:42:38.793Z,37.97
2019-03-31T02:45:12.877Z,32.93
2019-03-31T02:48:00.741Z,29.80
2019-03-31T02:50:50.501Z,30.43
2019-03-31T02:53:24.712Z,27.30
2019-03-31T02:55:59.641Z,32.00
2019-03-31T02:58:33.516Z,30.37
2019-03-31T03:01:08.778Z,33.20
2019-03-31T03:03:54.471Z,33.53
2019-03-31T03:06:32.159Z,33.73
2019-03-31T03:09:07.682Z,27.70
2019-03-31T03:11:45.799Z,31.90
2019-03-31T03:14:23.183Z,32.10
2019-03-31T03:16:58.571Z,33.40
2019-03-31T03:19:32.992Z,32.10
2019-03-31T03:22:07.770Z,32.20
2019-03-31T03:24:51.130Z,28.40
2019-03-31T03:27:26.088Z,31.43
2019-03-31T03:30:11.045Z,28.97
2019-03-31T03:33:12.240Z,28.90
2019-03-31T03:35:38.240Z,26.00
2019-03-31T03:38:12.968Z,26.80
2019-03-31T03:40:48.669Z,26.23
2019-03-31T03:43:24.070Z,24.70
2019-03-31T03:45:58.516Z,29.00
2019-03-31T03:48:33.596Z,29.83
2019-03-31T03:51:17.014Z,24.20
2019-03-31T03:53:51.724Z,28.63
2019-03-31T03:56:29.077Z,24.87
2019-03-31T03:59:11.769Z,25.60
2019-03-31T04:01:46.697Z,30.77
2019-03-31T04:04:21.850Z,28.50
2019-03-31T04:07:08.416Z,23.47
2019-03-31T04:09:43.176Z,31.47
2019-03-31T04:12:16.920Z,30.47
2019-03-31T04:14:51.639Z,30.67
2019-03-31T04:17:25.757Z,25.70
2019-03-31T04:20:00.661Z,25.07
2019-03-31T04:22:34.861Z,26.57
2019-03-31T04:25:08.829Z,24.80
2019-03-31T04:27:43.273Z,34.63
2019-03-31T04:30:17.985Z,25.90
2019-03-31T04:33:03.238Z,25.50
2019-03-31T04:46:23.154Z,24.57
2019-03-31T04:48:58.480Z,23.73
2019-03-31T04:51:44.114Z,25.40
2019-03-31T04:54:19.059Z,27.00
2019-03-31T04:56:53.327Z,30.77
2019-03-31T04:59:28.160Z,26.73
2019-03-31T05:02:02.992Z,25.03
2019-03-31T05:04:48.156Z,24.17
2019-03-31T05:07:23.194Z,22.00
2019-03-31T05:09:58.136Z,25.13
2019-03-31T05:12:32.903Z,20.90
2019-03-31T05:15:15.945Z,19.40
2019-03-31T05:17:59.902Z,23.40
2019-03-31T05:20:34.117Z,18.57
2019-03-31T05:23:17.173Z,24.80
2019-03-31T05:25:52.174Z,21.53
2019-03-31T05:28:44.164Z,16.60
2019-03-31T05:31:20.820Z,25.80
2019-03-31T05:34:18.491Z,21.57
2019-03-31T05:36:43.141Z,18.07
2019-03-31T05:39:28.214Z,18.57
2019-03-31T05:42:02.306Z,25.40
2019-03-31T05:44:36.519Z,20.63
2019-03-31T05:47:20.875Z,16.00
2019-03-31T05:49:55.278Z,12.10
2019-03-31T05:52:30.132Z,13.10
2019-03-31T05:55:12.964Z,15.17
2019-03-31T05:57:58.772Z,13.97
2019-03-31T06:00:42.670Z,14.53
2019-03-31T06:03:32.411Z,16.73
2019-03-31T06:06:06.511Z,12.00
2019-03-31T06:08:41.350Z,10.20
2019-03-31T06:11:16.407Z,11.57
2019-03-31T06:13:50.837Z,12.33
2019-03-31T06:16:34.301Z,13.50
2019-03-31T06:19:09.094Z,8.13
2019-03-31T06:21:52.426Z,13.23
2019-03-31T06:24:26.901Z,9.83
2019-03-31T06:27:01.947Z,9.87
2019-03-31T06:29:36.875Z,8.63
2019-03-31T06:32:11.888Z,12.37
2019-03-31T06:34:47.816Z,8.90
2019-03-31T06:37:44.156Z,16.93
2019-03-31T06:40:18.622Z,12.00
2019-03-31T06:43:01.969Z,10.07
2019-03-31T06:45:36.472Z,9.37
2019-03-31T06:48:21.822Z,12.73
2019-03-31T06:50:56.969Z,15.60
2019-03-31T06:53:40.161Z,8.27
2019-03-31T06:56:14.834Z,15.27
2019-03-31T06:58:57.915Z,9.77
2019-03-31T07:01:48.312Z,10.73
2019-03-31T07:04:31.845Z,15.67
2019-03-31T07:07:06.166Z,14.37
2019-03-31T07:09:49.897Z,12.23
2019-03-31T07:12:24.014Z,13.80
2019-03-31T07:15:00.346Z,14.10
2019-03-31T07:17:34.875Z,14.33
2019-03-31T07:20:21.630Z,13.87
2019-03-31T07:23:11.190Z,10.07
2019-03-31T07:25:46.324Z,16.20
2019-03-31T07:28:30.468Z,18.37
2019-03-31T07:31:17.479Z,10.03
2019-03-31T07:34:06.934Z,13.97
2019-03-31T07:36:42.408Z,16.03
2019-03-31T07:39:16.160Z,11.30
2019-03-31T07:41:52.478Z,19.93
2019-03-31T07:44:27.617Z,17.90
2019-03-31T07:47:01.670Z,9.93
2019-03-31T07:49:37.513Z,15.83
2019-03-31T07:52:24.563Z,14.10
2019-03-31T07:55:13.723Z,10.50
2019-03-31T07:57:48.698Z,16.43
2019-03-31T08:00:23.116Z,13.70
2019-03-31T08:03:00.252Z,16.10
2019-03-31T08:05:44.141Z,12.43
2019-03-31T08:08:19.009Z,13.40
2019-03-31T08:10:53.051Z,11.87
2019-03-31T08:13:27.464Z,11.37
2019-03-31T08:16:14.099Z,8.77
2019-03-31T08:18:48.903Z,17.30
2019-03-31T08:21:23.016Z,10.83
2019-03-31T08:23:57.439Z,14.67
2019-03-31T08:26:32.378Z,12.43
2019-03-31T08:29:26.807Z,9.70
2019-03-31T08:32:01.294Z,12.23
2019-03-31T08:34:35.765Z,12.50
2019-03-31T08:37:09.961Z,14.33
2019-03-31T08:39:53.711Z,12.50
2019-03-31T08:42:29.248Z,14.53
2019-03-31T08:48:31.587Z,10.47
2019-03-31T08:51:06.490Z,11.53
2019-03-31T08:53:58.935Z,14.37
2019-03-31T08:56:33.810Z,6.70
2019-03-31T08:59:08.691Z,14.57
2019-03-31T09:01:54.960Z,8.57
2019-03-31T09:04:29.646Z,14.10
2019-03-31T09:07:21.199Z,10.73
2019-03-31T09:09:55.331Z,9.17
2019-03-31T09:12:30.346Z,12.13
2019-03-31T09:15:05.986Z,11.50
2019-03-31T09:17:54.376Z,14.87
2019-03-31T09:20:30.644Z,9.73
2019-03-31T09:23:05.164Z,14.23
2019-03-31T09:25:40.794Z,8.60
2019-03-31T09:28:16.356Z,10.67
2019-03-31T09:31:08.265Z,14.73
2019-03-31T09:33:42.642Z,8.10
2019-03-31T09:36:29.924Z,10.80
2019-03-31T09:39:07.067Z,6.13
2019-03-31T09:42:02.382Z,8.90
2019-03-31T09:44:36.500Z,7.07
2019-03-31T09:47:22.096Z,10.40
2019-03-31T09:49:57.164Z,8.97
2019-03-31T09:52:31.271Z,6.20
2019-03-31T09:55:05.751Z,8.27
2019-03-31T09:57:40.193Z,4.93
2019-03-31T10:00:14.378Z,12.20
2019-03-31T10:03:01.222Z,7.87
2019-03-31T10:05:50.828Z,5.50
2019-03-31T10:08:25.340Z,6.57
2019-03-31T10:11:02.717Z,6.77
2019-03-31T10:13:36.127Z,7.23
2019-03-31T10:16:10.725Z,8.17
2019-03-31T10:18:46.237Z,8.73
2019-03-31T10:21:21.972Z,11.20
2019-03-31T10:23:56.869Z,8.33
2019-03-31T10:26:32.586Z,11.87
2019-03-31T10:29:08.717Z,7.67
2019-03-31T10:31:43.331Z,7.37
2019-03-31T10:34:28.801Z,13.20
2019-03-31T10:37:14.918Z,6.40
2019-03-31T10:39:49.729Z,10.23
2019-03-31T10:42:35.813Z,10.87
2019-03-31T10:45:10.314Z,13.03
2019-03-31T10:47:56.465Z,9.60
2019-03-31T10:50:49.803Z,9.57
2019-03-31T10:53:23.869Z,7.50
2019-03-31T10:55:57.611Z,10.27
2019-03-31T10:58:53.232Z,7.10
2019-03-31T11:01:45.028Z,10.83
2019-03-31T11:04:19.571Z,8.53
2019-03-31T11:06:59.519Z,8.30
2019-03-31T11:09:41.569Z,8.03
2019-03-31T11:12:16.487Z,8.93
2019-03-31T11:14:50.755Z,5.07
2019-03-31T11:17:37.347Z,5.20
2019-03-31T11:20:12.714Z,7.20
2019-03-31T11:22:52.660Z,6.07
2019-03-31T11:25:29.458Z,6.03
2019-03-31T11:28:15.304Z,5.67
2019-03-31T11:31:00.285Z,5.30
2019-03-31T11:33:35.459Z,5.73
2019-03-31T11:36:09.798Z,4.17
2019-03-31T11:38:44.001Z,3.67
2019-03-31T11:51:53.893Z,2.57
2019-03-31T11:54:40.278Z,4.07
2019-03-31T11:57:17.543Z,6.73
2019-03-31T11:59:50.345Z,5.10
2019-03-31T12:02:27.748Z,7.83
2019-03-31T12:05:20.829Z,7.47
2019-03-31T12:07:55.293Z,4.80
2019-03-31T12:10:40.985Z,3.27
2019-03-31T12:13:30.961Z,3.57
2019-03-31T12:29:34.528Z,4.13
2019-03-31T12:32:13.332Z,5.57
2019-03-31T12:34:48.727Z,5.13
2019-03-31T12:37:23.977Z,3.53
2019-03-31T12:39:58.823Z,4.43
2019-03-31T12:42:33.305Z,6.57
2019-03-31T12:45:11.447Z,7.13
2019-03-31T12:47:45.868Z,2.93
2019-03-31T12:50:46.195Z,6.93
2019-03-31T12:53:21.545Z,9.83
2019-03-31T12:56:13.985Z,5.00
2019-03-31T12:58:49.309Z,6.27
2019-03-31T13:01:23.420Z,5.10
2019-03-31T13:04:02.293Z,3.90
2019-03-31T13:06:36.756Z,3.37
2019-03-31T13:09:10.524Z,7.10
2019-03-31T13:11:45.160Z,5.70
2019-03-31T13:14:54.211Z,5.67
2019-03-31T13:18:07.640Z,8.40
2019-03-31T13:20:43.028Z,5.70
2019-03-31T13:23:17.250Z,5.87
2019-03-31T13:25:51.347Z,7.13
2019-03-31T13:39:09.031Z,6.70
2019-03-31T13:41:47.048Z,5.33
2019-03-31T13:44:20.558Z,5.90
2019-03-31T13:46:55.393Z,7.87
2019-03-31T13:49:37.990Z,10.27
2019-03-31T13:52:13.025Z,5.53
2019-03-31T13:54:47.734Z,6.47
2019-03-31T13:57:22.880Z,6.50
2019-03-31T13:59:57.554Z,4.17
2019-03-31T14:02:40.870Z,6.83
2019-03-31T14:05:15.273Z,6.73
2019-03-31T14:08:05.465Z,5.97
2019-03-31T14:10:39.621Z,8.90
2019-03-31T14:13:22.929Z,8.77
2019-03-31T14:15:56.692Z,8.77
2019-03-31T14:18:31.127Z,8.00
2019-03-31T14:21:14.272Z,7.63
2019-03-31T14:23:56.790Z,5.07
2019-03-31T14:26:39.777Z,7.63
2019-03-31T14:29:22.865Z,10.87
2019-03-31T14:32:05.747Z,8.03
2019-03-31T14:34:40.615Z,7.77
2019-03-31T14:37:24.152Z,4.00
2019-03-31T14:39:57.896Z,8.93
2019-03-31T14:42:32.509Z,4.50
2019-03-31T14:45:31.057Z,5.37
2019-03-31T14:48:05.007Z,6.87
2019-03-31T14:50:40.088Z,6.67
2019-03-31T14:53:13.781Z,4.20
2019-03-31T14:55:47.851Z,9.17
2019-03-31T14:58:21.893Z,7.40
2019-03-31T15:01:05.281Z,8.93
2019-03-31T15:03:39.852Z,7.83
2019-03-31T15:06:22.423Z,5.03
2019-03-31T15:09:07.589Z,7.57
2019-03-31T15:11:41.730Z,6.57
2019-03-31T15:14:16.917Z,8.03
2019-03-31T15:16:51.958Z,8.90
2019-03-31T15:19:26.027Z,10.13
2019-03-31T15:22:00.154Z,6.83
2019-03-31T15:24:43.811Z,7.73
2019-03-31T15:27:19.274Z,8.10
2019-03-31T15:29:53.520Z,6.73
2019-03-31T15:32:27.497Z,7.27
2019-03-31T15:35:01.247Z,5.97
2019-03-31T15:37:34.929Z,11.23
2019-03-31T15:40:09.509Z,9.13
2019-03-31T15:42:43.406Z,5.50
2019-03-31T15:45:17.365Z,6.87
2019-03-31T15:47:51.379Z,4.73
2019-03-31T15:50:34.551Z,6.90
2019-03-31T15:53:21.166Z,8.07
2019-03-31T15:55:56.237Z,7.00
2019-03-31T15:58:30.333Z,3.83
2019-03-31T16:01:14.804Z,6.50
2019-03-31T16:03:57.899Z,6.20
2019-03-31T16:06:40.836Z,3.63
2019-03-31T16:09:24.072Z,4.80
2019-03-31T16:11:58.591Z,8.07
2019-03-31T16:14:32.445Z,6.90
2019-03-31T16:17:14.898Z,6.83
2019-03-31T16:19:49.059Z,4.37
2019-03-31T16:23:04.890Z,4.77
2019-03-31T16:25:41.580Z,5.40
2019-03-31T16:28:16.079Z,4.37
2019-03-31T16:31:08.085Z,4.63
2019-03-31T16:33:59.038Z,5.63
2019-03-31T16:36:33.495Z,3.83
2019-03-31T16:39:36.539Z,3.77
2019-03-31T16:41:58.697Z,4.60
2019-03-31T16:44:32.754Z,4.53
2019-03-31T16:47:29.117Z,4.73
2019-03-31T16:50:03.389Z,4.43
2019-03-31T16:52:52.470Z,5.03
2019-03-31T16:55:44.060Z,10.70
2019-03-31T16:58:18.517Z,5.03
2019-03-31T17:00:51.688Z,7.63
2019-03-31T17:03:25.843Z,4.50
2019-03-31T17:06:13.689Z,9.17
2019-03-31T17:09:09.811Z,4.33
2019-03-31T17:11:44.073Z,5.43
2019-03-31T17:14:17.882Z,5.63
2019-03-31T17:16:51.122Z,6.17
2019-03-31T17:19:24.571Z,6.27
2019-03-31T17:22:00.033Z,5.77
2019-03-31T17:24:34.211Z,5.23
2019-03-31T17:27:25.994Z,5.30
2019-03-31T17:30:17.677Z,5.73
2019-03-31T17:33:03.232Z,5.70
2019-03-31T17:35:50.194Z,5.47
2019-03-31T17:38:24.706Z,4.03
2019-03-31T17:40:58.531Z,6.73
2019-03-31T17:43:32.752Z,3.60
2019-03-31T17:46:18.836Z,6.23
2019-03-31T17:49:11.795Z,5.30
2019-03-31T17:51:57.093Z,3.57
2019-03-31T17:54:41.612Z,6.23
2019-03-31T17:57:15.292Z,4.10
2019-03-31T17:59:49.251Z,1.43
2019-03-31T18:02:24.319Z,5.77
2019-03-31T18:04:57.885Z,3.37
2019-03-31T18:07:31.758Z,5.33
2019-03-31T18:10:21.142Z,3.67
2019-03-31T18:13:14.979Z,5.60
2019-03-31T18:15:49.126Z,3.23
2019-03-31T18:18:23.444Z,3.20
2019-03-31T18:21:14.403Z,3.57
2019-03-31T18:23:47.764Z,2.67
2019-03-31T18:26:22.029Z,3.57
2019-03-31T18:29:07.654Z,3.87
2019-03-31T18:31:52.356Z,11.77
2019-03-31T18:34:27.548Z,5.43
2019-03-31T18:37:01.233Z,4.80
2019-03-31T18:39:36.828Z,5.30
2019-03-31T18:42:21.341Z,5.23
2019-03-31T18:45:07.668Z,6.70
2019-03-31T18:47:41.198Z,4.10
2019-03-31T18:50:15.446Z,3.73
2019-03-31T18:53:16.551Z,3.20
2019-03-31T18:56:12.064Z,6.03
2019-03-31T18:59:29.809Z,6.47
2019-03-31T19:02:35.066Z,11.40
2019-03-31T19:05:26.913Z,10.03
2019-03-31T19:08:38.278Z,6.33
2019-03-31T19:11:29.984Z,8.50
2019-03-31T19:14:26.011Z,8.63
2019-03-31T19:17:13.360Z,5.63
2019-03-31T19:20:28.067Z,4.40
2019-03-31T19:23:13.569Z,5.63
2019-03-31T19:26:26.778Z,6.20
2019-03-31T19:29:07.737Z,11.33
2019-03-31T19:31:58.890Z,8.97
2019-03-31T19:34:55.603Z,7.67
2019-03-31T19:37:53.690Z,4.00
2019-03-31T19:41:04.422Z,6.20
2019-03-31T19:44:21.227Z,5.50
2019-03-31T19:47:18.177Z,8.73
2019-03-31T19:50:28.480Z,3.63
2019-03-31T19:53:33.471Z,2.00
2019-03-31T19:56:28.980Z,4.00
2019-03-31T19:59:30.034Z,5.93
2019-03-31T20:02:25.083Z,4.60
2019-03-31T20:05:25.711Z,5.40
2019-03-31T20:08:29.867Z,7.13
2019-03-31T20:11:22.198Z,7.20
2019-03-31T20:14:16.402Z,5.33
2019-03-31T20:17:18.015Z,9.40
2019-03-31T20:20:07.843Z,6.17
2019-03-31T20:23:24.902Z,7.90
2019-03-31T20:26:54.257Z,9.20
2019-03-31T20:29:55.492Z,8.27
2019-03-31T20:33:08.155Z,4.60
2019-03-31T20:36:00.900Z,13.83
2019-03-31T20:38:49.311Z,8.87
2019-03-31T20:41:43.138Z,6.27
2019-03-31T20:44:20.980Z,4.50
2019-03-31T20:46:55.676Z,5.10
2019-03-31T20:49:47.159Z,6.07
2019-03-31T20:52:37.692Z,6.27
2019-03-31T20:55:16.543Z,7.27
2019-03-31T20:57:48.006Z,6.40
2019-03-31T21:00:21.746Z,8.67
2019-03-31T21:03:06.809Z,9.70
2019-03-31T21:05:55.746Z,5.03
2019-03-31T21:08:35.965Z,8.30
2019-03-31T21:11:20.622Z,6.80
2019-03-31T21:13:56.973Z,10.27
2019-03-31T21:16:42.146Z,9.20
2019-03-31T21:19:33.867Z,6.90
2019-03-31T21:22:07.540Z,7.63
2019-03-31T21:24:47.378Z,7.03
2019-03-31T21:27:20.880Z,8.37
2019-03-31T21:29:54.514Z,6.30
2019-03-31T21:32:28.089Z,8.00
2019-03-31T21:35:02.426Z,5.80
2019-03-31T21:37:36.079Z,7.20
2019-03-31T21:40:10.194Z,5.80
2019-03-31T21:42:54.868Z,7.93
2019-03-31T21:45:30.152Z,8.43
2019-03-31T21:48:03.864Z,12.03
2019-03-31T21:50:37.337Z,8.30
2019-03-31T21:53:11.172Z,6.77
2019-03-31T21:55:57.471Z,10.83
2019-03-31T21:58:31.589Z,4.63
2019-03-31T22:01:05.341Z,8.20
2019-03-31T22:03:57.918Z,8.60
2019-03-31T22:06:48.940Z,7.77
2019-03-31T22:09:22.846Z,7.80
2019-03-31T22:12:11.624Z,9.53
2019-03-31T22:15:05.275Z,6.30
2019-03-31T22:17:50.937Z,7.63
2019-03-31T22:20:25.237Z,5.10
2019-03-31T22:22:59.088Z,9.50
2019-03-31T22:25:33.557Z,5.63
2019-03-31T22:28:06.989Z,15.33
2019-03-31T22:30:40.851Z,7.47
2019-03-31T22:33:14.414Z,10.00
2019-03-31T22:36:06.323Z,6.40
2019-03-31T22:39:00.456Z,4.70
2019-03-31T22:41:35.233Z,8.40
2019-03-31T22:44:27.937Z,5.07
2019-03-31T22:47:02.306Z,5.10
2019-03-31T22:49:49.084Z,9.57
2019-03-31T22:52:23.574Z,8.20
2019-03-31T22:54:57.438Z,7.83
2019-03-31T22:57:51.031Z,7.83
2019-03-31T23:00:28.765Z,6.00
2019-03-31T23:03:02.141Z,7.70
2019-03-31T23:05:48.720Z,8.33
2019-03-31T23:08:22.782Z,6.50
2019-03-31T23:10:56.873Z,5.10
2019-03-31T23:13:30.431Z,9.30
2019-03-31T23:16:04.213Z,7.70
2019-03-31T23:18:38.648Z,7.70
2019-03-31T23:21:13.215Z,6.20
2019-03-31T23:24:04.113Z,8.50
2019-03-31T23:26:37.740Z,8.47
2019-03-31T23:29:11.397Z,7.83
2019-03-31T23:31:44.886Z,6.97
2019-03-31T23:34:18.675Z,8.33
2019-03-31T23:36:52.768Z,8.00
2019-03-31T23:39:38.505Z,8.83
2019-03-31T23:42:12.829Z,6.90
2019-03-31T23:44:46.723Z,4.87
2019-03-31T23:47:39.350Z,12.00
2019-03-31T23:50:13.295Z,2.53
2019-03-31T23:52:47.451Z,7.50
2019-03-31T23:55:21.374Z,6.10
2019-03-31T23:57:55.792Z,7.40
